Time;durP1;ratioP1;P1;durP2;ratioP2;P2;SDS_P1;SDS_P2;PMS_P1;PMS_P2;Temp;Humidity;BMP_temperature;BMP_pressure;BME280_temperature;BME280_humidity;BME280_pressure;Samples;Min_cycle;Max_cycle;Signal;HPM_P1;HPM_P2
2023/04/16 00:00:05;;;;;;;207.47;192.40;;;7.30;55.80;;;;;;5034024;28;20649;-69
2023/04/16 00:02:31;;;;;;;370.33;346.33;;;7.40;56.30;;;;;;5032418;28;20419;-69
2023/04/16 00:04:57;;;;;;;434.03;406.07;;;7.30;56.20;;;;;;5032694;28;20419;-70
2023/04/16 00:07:22;;;;;;;265.23;247.10;;;7.30;56.00;;;;;;5032487;28;20185;-70
2023/04/16 00:09:48;;;;;;;214.60;198.23;;;7.30;56.60;;;;;;5032562;28;20185;-69
2023/04/16 00:12:13;;;;;;;343.00;320.90;;;7.30;57.10;;;;;;5033482;28;20386;-69
2023/04/16 00:14:39;;;;;;;250.23;232.03;;;7.30;56.70;;;;;;5033578;28;20207;-69
2023/04/16 00:17:04;;;;;;;261.17;243.60;;;7.30;56.60;;;;;;5032742;28;20649;-69
2023/04/16 00:19:30;;;;;;;282.90;264.50;;;7.30;57.30;;;;;;5033570;28;20549;-70
2023/04/16 00:21:56;;;;;;;305.87;285.30;;;7.30;56.80;;;;;;5032950;28;20604;-72
2023/04/16 00:24:21;;;;;;;285.60;266.77;;;7.30;56.20;;;;;;5031677;28;20680;-70
2023/04/16 00:26:47;;;;;;;152.77;140.13;;;7.30;56.20;;;;;;5033636;28;20201;-71
2023/04/16 00:29:12;;;;;;;303.13;282.87;;;7.30;57.10;;;;;;5033821;28;20229;-70
2023/04/16 00:31:38;;;;;;;323.63;303.07;;;7.30;56.60;;;;;;5033164;28;20371;-70
2023/04/16 00:34:03;;;;;;;263.00;245.90;;;7.40;56.60;;;;;;5033270;28;20224;-70
2023/04/16 00:36:29;;;;;;;123.67;112.20;;;7.40;55.80;;;;;;5033318;28;20591;-70
2023/04/16 00:38:55;;;;;;;296.87;278.83;;;7.40;57.20;;;;;;5033223;28;20202;-70
2023/04/16 00:41:25;;;;;;;365.07;341.67;;;7.40;56.70;;;;;;5033159;28;20179;-70
2023/04/16 00:43:50;;;;;;;368.70;346.23;;;7.40;56.30;;;;;;5031571;28;20477;-70
2023/04/16 00:46:17;;;;;;;286.50;268.20;;;7.40;56.20;;;;;;5033155;28;20488;-70
2023/04/16 00:48:44;;;;;;;186.30;172.23;;;7.50;56.30;;;;;;5032985;28;20221;-70
2023/04/16 00:51:10;;;;;;;275.80;256.10;;;7.50;55.70;;;;;;5032889;28;20418;-70
2023/04/16 00:53:37;;;;;;;189.70;175.27;;;7.50;56.50;;;;;;5032428;28;20855;-70
2023/04/16 00:56:04;;;;;;;189.70;174.77;;;7.60;55.40;;;;;;5032841;28;20479;-70
2023/04/16 00:58:31;;;;;;;392.97;370.97;;;7.60;54.90;;;;;;5032901;28;20915;-70
2023/04/16 01:00:57;;;;;;;299.30;279.77;;;7.60;54.80;;;;;;5032875;28;20784;-70
2023/04/16 01:03:29;;;;;;;151.70;137.93;;;7.60;54.00;;;;;;5031059;28;20474;-70
2023/04/16 01:05:55;;;;;;;229.00;212.67;;;7.60;55.20;;;;;;5032756;28;20183;-71
2023/04/16 01:08:21;;;;;;;231.83;215.63;;;7.60;55.40;;;;;;5032747;28;20418;-70
2023/04/16 01:10:47;;;;;;;216.23;200.37;;;7.70;54.10;;;;;;5032628;28;20923;-70
2023/04/16 01:13:12;;;;;;;138.80;126.13;;;7.70;53.00;;;;;;5032313;28;20437;-70
2023/04/16 01:15:38;;;;;;;234.43;218.60;;;7.70;53.80;;;;;;5032656;28;20191;-70
2023/04/16 01:18:18;;;;;;;285.87;266.10;;;7.70;54.10;;;;;;5032479;28;20183;-70
2023/04/16 01:20:44;;;;;;;375.47;351.80;;;7.60;54.00;;;;;;5031296;28;20566;-71
2023/04/16 01:23:10;;;;;;;201.33;185.67;;;7.60;54.10;;;;;;5031833;28;20470;-70
2023/04/16 01:25:36;;;;;;;344.60;321.83;;;7.50;55.10;;;;;;5032321;28;20779;-70
2023/04/16 01:28:02;;;;;;;217.70;201.03;;;7.50;55.10;;;;;;5032345;28;20433;-70
2023/04/16 01:30:27;;;;;;;408.70;382.87;;;7.50;55.40;;;;;;5030882;28;20499;-70
2023/04/16 01:32:53;;;;;;;337.70;315.73;;;7.50;54.60;;;;;;5031697;28;20631;-70
2023/04/16 01:35:19;;;;;;;277.63;259.27;;;7.40;55.00;;;;;;5030570;28;20179;-70
2023/04/16 01:38:10;;;;;;;406.67;381.17;;;7.40;55.00;;;;;;5030800;28;20179;-70
2023/04/16 01:40:36;;;;;;;157.67;143.90;;;7.40;55.40;;;;;;5030890;28;20184;-69
2023/04/16 01:43:03;;;;;;;264.10;246.03;;;7.40;56.20;;;;;;5031627;28;20496;-70
2023/04/16 01:45:30;;;;;;;330.30;309.23;;;7.40;56.10;;;;;;5032029;28;20556;-70
2023/04/16 01:47:55;;;;;;;316.47;296.80;;;7.40;56.80;;;;;;5031919;28;20418;-70
2023/04/16 01:50:22;;;;;;;308.57;289.53;;;7.50;57.50;;;;;;5031949;28;20934;-70
2023/04/16 01:52:48;;;;;;;223.80;207.57;;;7.50;57.80;;;;;;5031601;28;20202;-70
2023/04/16 01:55:14;;;;;;;439.73;412.73;;;7.40;56.30;;;;;;5031768;28;20460;-70
2023/04/16 01:57:40;;;;;;;332.60;310.60;;;7.50;56.80;;;;;;5030569;28;20206;-70
2023/04/16 02:00:07;;;;;;;370.13;345.33;;;7.40;56.20;;;;;;5030564;28;20966;-70
2023/04/16 02:02:33;;;;;;;314.00;293.77;;;;;;;;;;5031676;28;20171;-70
2023/04/16 02:05:00;;;;;;;242.20;224.67;;;;;;;;;;5030628;28;20415;-70
2023/04/16 02:07:26;;;;;;;336.13;316.60;;;;;;;;;;5030423;28;20791;-70
2023/04/16 02:09:52;;;;;;;311.53;291.93;;;;;;;;;;5031637;28;20433;-70
2023/04/16 02:12:18;;;;;;;229.77;213.07;;;;;;;;;;5030163;28;20962;-70
2023/04/16 02:14:44;;;;;;;357.07;336.80;;;;;;;;;;5030459;28;20482;-70
2023/04/16 02:17:10;;;;;;;324.00;303.93;;;;;;;;;;5031957;28;20823;-71
2023/04/16 02:19:36;;;;;;;115.63;104.17;;;;;;;;;;5030753;28;20788;-71
2023/04/16 02:22:02;;;;;;;314.70;293.33;;;;;;;;;;5030443;28;20418;-71
2023/04/16 02:24:29;;;;;;;304.47;284.30;;;;;;;;;;5031637;28;20473;-71
2023/04/16 02:26:55;;;;;;;549.17;514.63;;;;;;;;;;5031618;28;20419;-71
2023/04/16 02:29:21;;;;;;;310.43;291.23;;;;;;;;;;5031771;28;20406;-71
2023/04/16 02:31:48;;;;;;;327.40;305.23;;;;;;;;;;5031393;28;20498;-71
2023/04/16 02:34:14;;;;;;;225.30;209.57;;;;;;;;;;5031332;28;20533;-71
2023/04/16 02:36:40;;;;;;;297.50;277.73;;;;;;;;;;5031555;28;20406;-71
2023/04/16 02:39:06;;;;;;;260.87;243.27;;;;;;;;;;5031538;28;20475;-71
2023/04/16 02:41:32;;;;;;;256.00;238.53;;;;;;;;;;5031472;28;20468;-71
2023/04/16 02:43:58;;;;;;;181.63;167.10;;;;;;;;;;5031409;28;20498;-71
2023/04/16 02:46:24;;;;;;;315.63;296.33;;;;;;;;;;5032078;28;20842;-71
2023/04/16 02:48:50;;;;;;;398.93;376.40;;;;;;;;;;5035193;28;20915;-71
2023/04/16 02:51:16;;;;;;;445.93;416.67;;;;;;;;;;5035109;28;20418;-71
2023/04/16 02:53:44;;;;;;;485.43;456.50;;;;;;;;;;5033618;28;20477;-71
2023/04/16 02:56:11;;;;;;;318.17;298.23;;;;;;;;;;5035205;28;20422;-71
2023/04/16 02:58:37;;;;;;;357.47;334.47;;;;;;;;;;5033836;28;20430;-72
2023/04/16 03:01:02;;;;;;;406.83;382.17;;;;;;;;;;5033842;28;20442;-70
2023/04/16 03:03:28;;;;;;;335.00;315.47;;;;;;;;;;5034744;28;20474;-70
2023/04/16 03:05:54;;;;;;;365.00;342.60;;;;;;;;;;5035354;28;20418;-70
2023/04/16 03:08:20;;;;;;;225.60;209.93;;;;;;;;;;5035163;28;20908;-71
2023/04/16 03:10:46;;;;;;;420.47;394.00;;;;;;;;;;5034883;28;20410;-70
2023/04/16 03:13:13;;;;;;;325.83;304.30;;;;;;;;;;5034653;28;20437;-71
2023/04/16 03:15:39;;;;;;;397.07;373.37;;;;;;;;;;5034932;28;20499;-70
2023/04/16 03:18:05;;;;;;;171.40;157.63;;;;;;;;;;5034807;28;20414;-70
2023/04/16 03:20:31;;;;;;;336.30;314.17;;;;;;;;;;5034682;28;20423;-72
2023/04/16 03:22:57;;;;;;;268.20;250.43;;;;;;;;;;5034231;28;20473;-71
2023/04/16 03:25:23;;;;;;;216.47;200.90;;;;;;;;;;5034730;28;20406;-70
2023/04/16 03:27:49;;;;;;;402.43;376.47;;;;;;;;;;5034558;28;20413;-71
2023/04/16 03:30:15;;;;;;;416.90;391.13;;;;;;;;;;5033301;28;20453;-71
2023/04/16 03:32:41;;;;;;;207.03;191.13;;;;;;;;;;5033997;28;20450;-71
2023/04/16 03:35:08;;;;;;;283.10;264.37;;;;;;;;;;5034398;28;20824;-71
2023/04/16 03:37:34;;;;;;;350.80;328.87;;;;;;;;;;5034408;28;20424;-71
2023/04/16 03:40:01;;;;;;;225.67;210.10;;;;;;;;;;5033000;28;20406;-71
2023/04/16 03:42:26;;;;;;;311.30;290.97;;;;;;;;;;5032896;28;20417;-71
2023/04/16 03:44:52;;;;;;;269.60;251.50;;;;;;;;;;5032906;28;20430;-71
2023/04/16 03:47:19;;;;;;;320.10;299.10;;;;;;;;;;5034159;28;20410;-71
2023/04/16 03:49:45;;;;;;;175.97;161.97;;;;;;;;;;5032786;28;20425;-71
2023/04/16 03:52:11;;;;;;;259.67;241.87;;;;;;;;;;5033731;28;20955;-71
2023/04/16 03:54:36;;;;;;;306.77;287.63;;;7.50;56.00;;;;;;5032943;28;20425;-71
2023/04/16 03:57:02;;;;;;;144.77;132.33;;;7.40;57.80;;;;;;5032708;28;20426;-71
2023/04/16 03:59:27;;;;;;;138.23;125.90;;;7.40;58.50;;;;;;5033945;28;20188;-71
2023/04/16 04:01:53;;;;;;;400.33;372.93;;;7.50;59.20;;;;;;5033880;28;20636;-71
2023/04/16 04:04:18;;;;;;;375.10;350.87;;;7.50;56.70;;;;;;5033868;28;20701;-71
2023/04/16 04:06:45;;;;;;;372.43;351.53;;;7.40;56.20;;;;;;5034152;28;20176;-71
2023/04/16 04:09:11;;;;;;;375.07;353.07;;;7.40;58.30;;;;;;5032558;28;20182;-71
2023/04/16 04:11:36;;;;;;;316.53;296.53;;;7.50;58.60;;;;;;5033491;28;20500;-71
2023/04/16 04:14:04;;;;;;;160.10;145.97;;;7.60;57.50;;;;;;5033601;28;20268;-71
2023/04/16 04:16:30;;;;;;;250.47;233.00;;;7.70;57.20;;;;;;5033509;28;20220;-71
2023/04/16 04:18:56;;;;;;;403.83;379.83;;;7.60;56.20;;;;;;5033301;28;20410;-72
2023/04/16 04:21:21;;;;;;;305.00;284.63;;;7.60;55.90;;;;;;5031363;28;20417;-72
2023/04/16 04:23:47;;;;;;;431.60;407.90;;;7.50;55.10;;;;;;5033242;28;20218;-71
2023/04/16 04:26:13;;;;;;;298.00;278.47;;;;;;;;;;5032205;28;20199;-71
2023/04/16 04:28:38;;;;;;;319.80;299.80;;;7.50;56.30;;;;;;5032243;28;20187;-71
2023/04/16 04:31:04;;;;;;;380.10;356.30;;;7.50;56.50;;;;;;5033461;28;20476;-71
2023/04/16 04:33:29;;;;;;;475.37;446.83;;;7.50;56.60;;;;;;5056913;22;20239;-68
2023/04/16 04:35:55;;;;;;;227.67;211.90;;;7.50;57.10;;;;;;5033794;28;20250;-70
2023/04/16 04:38:24;;;;;;;286.03;266.90;;;7.60;58.60;;;;;;5032198;28;20184;-70
2023/04/16 04:40:52;;;;;;;314.93;294.97;;;7.60;56.20;;;;;;5033326;28;20169;-69
2023/04/16 04:43:19;;;;;;;241.10;224.67;;;7.70;55.60;;;;;;5031819;28;20474;-68
2023/04/16 04:45:45;;;;;;;366.83;343.47;;;7.60;57.90;;;;;;5033386;28;20505;-68
2023/04/16 04:48:11;;;;;;;278.00;259.07;;;7.60;56.10;;;;;;5033586;28;20406;-69
2023/04/16 04:50:36;;;;;;;250.10;231.67;;;7.50;56.00;;;;;;5031966;28;20414;-69
2023/04/16 04:53:06;;;;;;;307.27;287.77;;;7.50;55.90;;;;;;5033004;28;21025;-70
2023/04/16 04:55:31;;;;;;;268.37;248.87;;;7.60;54.50;;;;;;5033242;28;20172;-69
2023/04/16 04:57:57;;;;;;;326.90;307.27;;;7.50;54.90;;;;;;5033136;28;20937;-69
2023/04/16 05:00:22;;;;;;;123.53;112.07;;;7.50;54.00;;;;;;5033196;28;20552;-69
2023/04/16 05:02:49;;;;;;;295.87;275.17;;;7.50;54.80;;;;;;5031336;28;20218;-69
2023/04/16 05:05:14;;;;;;;301.93;282.13;;;7.50;54.50;;;;;;5032907;28;20273;-69
2023/04/16 05:07:40;;;;;;;229.50;213.80;;;7.50;55.10;;;;;;5033020;28;20442;-69
2023/04/16 05:10:06;;;;;;;236.00;219.53;;;7.40;52.60;;;;;;5032534;28;20230;-69
2023/04/16 05:12:32;;;;;;;129.80;117.90;;;7.50;55.20;;;;;;5032748;28;20233;-69
2023/04/16 05:14:57;;;;;;;420.17;394.23;;;7.40;53.50;;;;;;5031388;28;20938;-69
2023/04/16 05:17:23;;;;;;;355.50;333.10;;;7.40;53.70;;;;;;5032925;28;20214;-70
2023/04/16 05:19:48;;;;;;;227.43;211.10;;;7.40;53.20;;;;;;5031527;28;20309;-69
2023/04/16 05:22:17;;;;;;;323.33;303.70;;;7.50;53.90;;;;;;5032474;28;20213;-69
2023/04/16 05:24:43;;;;;;;333.87;314.10;;;7.50;53.80;;;;;;5032723;28;20212;-69
2023/04/16 05:27:11;;;;;;;310.17;289.93;;;7.50;54.50;;;;;;5032571;28;20423;-70
2023/04/16 05:29:37;;;;;;;101.27;90.90;;;7.50;52.80;;;;;;5031198;28;20176;-69
2023/04/16 05:32:03;;;;;;;441.73;415.13;;;7.50;53.30;;;;;;5032536;28;20418;-69
2023/04/16 05:34:29;;;;;;;339.03;319.20;;;7.50;52.90;;;;;;5031243;28;20302;-68
2023/04/16 05:36:55;;;;;;;122.37;110.37;;;7.50;53.40;;;;;;5032486;28;20414;-70
2023/04/16 05:39:20;;;;;;;106.47;95.03;;;7.50;53.50;;;;;;5032577;28;20494;-69
2023/04/16 05:41:46;;;;;;;244.23;227.87;;;7.50;54.50;;;;;;5032345;28;20640;-69
2023/04/16 05:44:14;;;;;;;325.93;304.50;;;7.50;52.90;;;;;;5032370;28;20217;-69
2023/04/16 05:46:40;;;;;;;236.10;218.33;;;7.50;53.40;;;;;;5031277;28;20176;-69
2023/04/16 05:49:06;;;;;;;278.67;259.43;;;;;;;;;;5032553;28;20410;-69
2023/04/16 05:51:32;;;;;;;130.30;118.47;;;7.50;54.20;;;;;;5032404;28;20194;-69
2023/04/16 05:53:57;;;;;;;385.73;361.93;;;7.50;55.10;;;;;;5031966;28;20863;-68
2023/04/16 05:56:24;;;;;;;315.50;294.43;;;7.60;53.90;;;;;;5032953;28;20179;-68
2023/04/16 05:58:49;;;;;;;367.03;346.30;;;7.60;52.30;;;;;;5032702;28;20236;-68
2023/04/16 06:01:15;;;;;;;209.93;194.93;;;7.50;53.50;;;;;;5031233;28;20513;-68
2023/04/16 06:03:40;;;;;;;177.07;163.23;;;7.50;54.60;;;;;;5030990;28;20215;-68
2023/04/16 06:06:07;;;;;;;484.83;451.60;;;7.60;53.80;;;;;;5031152;28;20184;-69
2023/04/16 06:08:33;;;;;;;267.80;250.53;;;7.50;52.80;;;;;;5032278;28;20477;-68
2023/04/16 06:10:58;;;;;;;283.00;265.33;;;7.50;54.30;;;;;;5032146;28;20411;-69
2023/04/16 06:13:24;;;;;;;260.87;243.10;;;7.50;55.00;;;;;;5030434;28;20204;-68
2023/04/16 06:15:49;;;;;;;338.80;317.67;;;7.70;54.90;;;;;;5030992;28;20184;-68
2023/04/16 06:18:15;;;;;;;114.83;101.07;;;7.60;52.90;;;;;;5030127;28;20194;-68
2023/04/16 06:20:40;;;;;;;249.30;232.37;;;7.60;54.90;;;;;;5032353;28;20271;-68
2023/04/16 06:23:06;;;;;;;403.40;378.17;;;7.60;53.80;;;;;;5035902;28;20611;-68
2023/04/16 06:25:31;;;;;;;217.40;201.93;;;7.60;53.30;;;;;;5036487;28;20175;-67
2023/04/16 06:27:57;;;;;;;372.20;348.20;;;7.50;54.00;;;;;;5036148;28;20180;-68
2023/04/16 06:30:23;;;;;;;273.47;255.73;;;7.50;54.80;;;;;;5037159;28;20210;-68
2023/04/16 06:32:49;;;;;;;230.47;214.60;;;7.60;55.00;;;;;;5034994;28;20187;-68
2023/04/16 06:35:14;;;;;;;358.90;336.30;;;7.50;54.80;;;;;;5035551;28;20223;-67
2023/04/16 06:37:43;;;;;;;347.87;325.47;;;7.50;56.10;;;;;;5036445;28;20446;-68
2023/04/16 06:40:09;;;;;;;241.07;224.77;;;7.50;55.10;;;;;;5036108;28;20255;-69
2023/04/16 06:42:35;;;;;;;202.53;186.67;;;7.50;55.20;;;;;;5035588;28;20423;-68
2023/04/16 06:45:00;;;;;;;316.63;295.17;;;7.60;55.60;;;;;;5035719;28;20476;-70
2023/04/16 06:47:26;;;;;;;403.73;377.77;;;7.50;55.10;;;;;;5034694;28;20180;-68
2023/04/16 06:49:51;;;;;;;419.03;390.70;;;7.50;55.10;;;;;;5035623;28;20191;-69
2023/04/16 06:52:17;;;;;;;357.03;333.30;;;7.50;55.10;;;;;;5035459;28;20642;-69
2023/04/16 06:54:42;;;;;;;291.50;271.80;;;7.50;55.60;;;;;;5035655;28;20624;-70
2023/04/16 06:57:08;;;;;;;261.07;242.53;;;7.50;55.70;;;;;;5034415;28;20225;-68
2023/04/16 06:59:33;;;;;;;357.60;334.83;;;7.60;56.10;;;;;;5034092;28;20212;-68
2023/04/16 07:01:59;;;;;;;434.37;406.10;;;7.50;56.30;;;;;;5035111;28;20307;-68
2023/04/16 07:04:25;;;;;;;504.57;473.07;;;7.40;56.60;;;;;;5035236;28;20211;-69
2023/04/16 07:06:50;;;;;;;461.87;430.50;;;7.40;57.20;;;;;;5035323;28;20205;-68
2023/04/16 07:09:18;;;;;;;342.47;319.37;;;7.30;57.40;;;;;;5035120;28;20238;-67
2023/04/16 07:11:44;;;;;;;357.53;334.37;;;7.40;59.20;;;;;;5034814;28;20199;-68
2023/04/16 07:14:13;;;;;;;394.53;367.63;;;7.40;59.10;;;;;;5033815;28;20958;-69
2023/04/16 07:16:39;;;;;;;459.10;431.87;;;7.40;58.60;;;;;;5035161;28;20424;-68
2023/04/16 07:19:04;;;;;;;272.13;251.60;;;7.50;58.60;;;;;;5034976;28;20623;-69
2023/04/16 07:21:30;;;;;;;424.33;394.97;;;7.70;58.70;;;;;;5034925;28;20836;-68
2023/04/16 07:23:56;;;;;;;272.83;253.13;;;7.70;56.90;;;;;;5034738;28;20210;-68
2023/04/16 07:26:21;;;;;;;229.13;212.00;;;7.70;55.00;;;;;;5034763;28;20210;-68
2023/04/16 07:28:47;;;;;;;424.13;398.00;;;7.60;54.40;;;;;;5035410;28;20195;-69
2023/04/16 07:31:12;;;;;;;297.70;278.03;;;7.70;55.30;;;;;;5035151;28;20187;-69
2023/04/16 07:33:38;;;;;;;240.40;221.20;;;7.60;55.30;;;;;;5034245;28;20243;-68
2023/04/16 07:36:04;;;;;;;486.37;452.83;;;7.60;55.20;;;;;;5035721;28;20187;-69
2023/04/16 07:38:29;;;;;;;253.37;234.57;;;7.50;54.50;;;;;;5034802;28;20187;-68
2023/04/16 07:40:55;;;;;;;363.90;340.60;;;7.50;55.80;;;;;;5034937;28;20413;-67
2023/04/16 07:43:21;;;;;;;300.10;277.20;;;7.50;55.10;;;;;;5035913;28;20214;-69
2023/04/16 07:45:47;;;;;;;225.70;207.53;;;7.50;56.30;;;;;;5034511;28;20795;-69
2023/04/16 07:48:12;;;;;;;344.57;321.40;;;7.60;55.50;;;;;;5034642;28;20183;-69
2023/04/16 07:50:38;;;;;;;254.63;236.13;;;7.60;55.30;;;;;;5033794;28;20632;-68
2023/04/16 07:53:06;;;;;;;260.73;240.53;;;7.50;55.30;;;;;;5035045;28;20184;-69
2023/04/16 07:55:31;;;;;;;313.73;291.27;;;7.60;56.60;;;;;;5034890;28;20612;-68
2023/04/16 07:57:57;;;;;;;482.27;450.93;;;7.60;56.00;;;;;;5036076;28;20525;-69
2023/04/16 08:00:23;;;;;;;310.87;288.40;;;7.70;56.10;;;;;;5033669;28;20215;-68
2023/04/16 08:02:48;;;;;;;371.60;347.23;;;7.70;55.30;;;;;;5033296;28;20237;-69
2023/04/16 08:05:14;;;;;;;549.23;496.57;;;7.70;55.40;;;;;;5034589;28;20199;-69
2023/04/16 08:07:39;;;;;;;314.87;293.30;;;7.70;54.20;;;;;;5033853;28;20607;-68
2023/04/16 08:10:06;;;;;;;329.00;305.73;;;7.70;54.30;;;;;;5034413;28;20184;-68
2023/04/16 08:12:31;;;;;;;359.97;338.07;;;7.80;54.80;;;;;;5033374;28;20271;-68
2023/04/16 08:14:57;;;;;;;307.43;283.57;;;7.90;54.30;;;;;;5033958;28;20483;-68
2023/04/16 08:17:22;;;;;;;520.97;486.67;;;8.00;54.40;;;;;;5034584;28;20185;-68
2023/04/16 08:19:48;;;;;;;370.43;345.23;;;8.00;52.50;;;;;;5035995;28;20184;-68
2023/04/16 08:22:14;;;;;;;259.83;241.33;;;8.00;53.10;;;;;;5035305;28;20278;-68
2023/04/16 08:24:40;;;;;;;313.77;290.10;;;8.20;52.80;;;;;;5034885;28;20656;-68
2023/04/16 08:27:05;;;;;;;417.90;388.90;;;8.20;50.80;;;;;;5034362;28;20465;-68
2023/04/16 08:29:31;;;;;;;395.37;369.43;;;8.10;50.20;;;;;;5034521;28;20185;-69
2023/04/16 08:31:57;;;;;;;182.97;166.73;;;8.00;50.60;;;;;;5033963;28;20184;-68
2023/04/16 08:34:23;;;;;;;388.10;360.73;;;8.00;51.30;;;;;;5033602;28;20291;-69
2023/04/16 08:36:48;;;;;;;381.33;355.63;;;8.00;50.70;;;;;;5033802;28;20521;-68
2023/04/16 08:39:14;;;;;;;276.87;255.40;;;8.00;51.30;;;;;;5034156;28;20193;-68
2023/04/16 08:41:43;;;;;;;395.43;368.07;;;8.00;50.60;;;;;;5033353;28;20196;-70
2023/04/16 08:44:16;;;;;;;157.33;143.37;;;8.00;50.70;;;;;;5032739;28;20219;-68
2023/04/16 08:46:42;;;;;;;288.10;267.50;;;8.00;51.20;;;;;;5033963;28;20485;-70
2023/04/16 08:49:19;;;;;;;320.20;295.60;;;8.10;50.70;;;;;;5033781;28;20423;-68
2023/04/16 08:51:50;;;;;;;418.10;390.27;;;8.20;50.80;;;;;;5033108;28;20890;-68
2023/04/16 08:54:20;;;;;;;490.87;457.50;;;8.00;48.50;;;;;;5032318;28;20442;-68
2023/04/16 08:56:47;;;;;;;289.13;269.27;;;8.00;50.60;;;;;;5034049;28;20513;-69
2023/04/16 08:59:13;;;;;;;465.93;433.77;;;8.00;50.70;;;;;;5033361;28;20434;-69
2023/04/16 09:01:40;;;;;;;271.00;251.30;;;8.10;50.70;;;;;;5032905;28;20474;-69
2023/04/16 09:04:06;;;;;;;830.60;745.10;;;8.10;50.80;;;;;;5032912;28;20461;-69
2023/04/16 09:06:33;;;;;;;248.27;228.70;;;8.10;46.90;;;;;;5034032;28;20492;-69
2023/04/16 09:09:03;;;;;;;248.67;230.20;;;8.20;48.50;;;;;;5034041;28;20177;-68
2023/04/16 09:11:29;;;;;;;109.27;92.20;;;8.20;49.70;;;;;;5033281;28;20419;-69
2023/04/16 09:13:56;;;;;;;482.53;451.00;;;8.50;48.80;;;;;;5032914;28;20446;-68
2023/04/16 09:16:23;;;;;;;527.17;492.40;;;8.70;46.30;;;;;;5033058;28;20438;-69
2023/04/16 09:18:50;;;;;;;269.23;248.00;;;8.60;45.20;;;;;;5032992;28;20418;-69
2023/04/16 09:21:16;;;;;;;239.97;219.93;;;8.60;46.00;;;;;;5032839;28;20434;-69
2023/04/16 09:23:42;;;;;;;469.57;438.53;;;8.70;45.90;;;;;;5032675;28;20835;-68
2023/04/16 09:26:08;;;;;;;421.40;392.17;;;8.70;44.00;;;;;;5032628;28;20258;-70
2023/04/16 09:28:50;;;;;;;262.20;242.67;;;8.70;44.50;;;;;;5032135;28;20470;-68
2023/04/16 09:31:20;;;;;;;443.30;412.60;;;8.60;44.20;;;;;;5033419;28;20176;-69
2023/04/16 09:34:15;;;;;;;405.83;374.97;;;8.60;44.00;;;;;;5032833;28;20483;-68
2023/04/16 09:36:40;;;;;;;295.43;273.40;;;8.60;45.00;;;;;;5019556;28;20451;-68
2023/04/16 09:39:06;;;;;;;269.53;249.00;;;8.80;45.90;;;;;;5032526;28;20419;-68
2023/04/16 09:41:34;;;;;;;313.33;290.17;;;8.90;42.40;;;;;;5032391;28;20186;-68
2023/04/16 09:44:03;;;;;;;331.20;308.77;;;8.80;41.70;;;;;;5032626;28;20689;-69
2023/04/16 09:46:30;;;;;;;204.73;188.70;;;8.80;43.50;;;;;;5032192;28;20782;-69
2023/04/16 09:48:56;;;;;;;378.33;352.07;;;8.90;44.90;;;;;;5032915;28;20426;-69
2023/04/16 09:51:22;;;;;;;435.97;406.07;;;9.10;43.30;;;;;;5033221;28;20421;-69
2023/04/16 09:53:52;;;;;;;508.53;474.33;;;9.20;42.90;;;;;;5033000;28;20443;-69
2023/04/16 09:56:22;;;;;;;394.73;370.77;;;9.20;40.50;;;;;;5033099;28;20546;-69
2023/04/16 09:58:47;;;;;;;401.10;372.57;;;9.40;41.20;;;;;;5031729;28;20953;-69
2023/04/16 10:01:13;;;;;;;546.07;507.83;;;9.50;40.20;;;;;;5033355;28;20444;-68
2023/04/16 10:03:39;;;;;;;344.00;318.80;;;9.40;36.60;;;;;;5032900;28;20220;-68
2023/04/16 10:06:18;;;;;;;396.77;370.17;;;9.40;37.60;;;;;;5033065;28;20238;-69
2023/04/16 10:08:48;;;;;;;341.90;316.93;;;9.50;36.40;;;;;;5032195;28;20405;-68
2023/04/16 10:11:18;;;;;;;351.47;327.30;;;9.70;37.40;;;;;;5032906;28;20522;-69
2023/04/16 10:13:44;;;;;;;360.57;334.23;;;9.90;37.00;;;;;;5032305;28;20456;-69
2023/04/16 10:16:10;;;;;;;469.70;439.27;;;9.70;35.20;;;;;;5031731;28;20973;-69
2023/04/16 10:18:37;;;;;;;491.10;460.33;;;9.50;33.20;;;;;;5032584;28;20566;-68
2023/04/16 10:21:03;;;;;;;409.83;382.90;;;9.50;33.50;;;;;;5034530;28;20187;-68
2023/04/16 10:23:29;;;;;;;380.13;354.57;;;9.30;36.00;;;;;;5033981;28;20546;-68
2023/04/16 10:25:58;;;;;;;332.73;308.63;;;9.20;40.00;;;;;;5032625;28;20466;-69
2023/04/16 10:28:24;;;;;;;231.80;214.33;;;9.30;39.10;;;;;;5032519;28;20414;-68
2023/04/16 10:30:52;;;;;;;369.70;344.77;;;9.30;38.20;;;;;;5033332;28;20491;-68
2023/04/16 10:33:26;;;;;;;418.80;391.07;;;9.30;38.40;;;;;;5057022;22;20206;-72
2023/04/16 10:36:06;;;;;;;367.90;343.07;;;9.30;37.90;;;;;;5010657;28;20483;-72
2023/04/16 10:38:32;;;;;;;189.43;174.47;;;9.30;36.60;;;;;;5011802;28;20392;-72
2023/04/16 10:41:05;;;;;;;350.17;324.57;;;9.40;38.60;;;;;;5012031;28;20405;-72
2023/04/16 10:43:37;;;;;;;541.00;505.63;;;9.60;37.50;;;;;;5010528;28;20205;-72
2023/04/16 10:46:19;;;;;;;340.27;318.57;;;9.60;36.10;;;;;;5011599;28;20434;-71
2023/04/16 10:48:45;;;;;;;98.43;72.53;;;9.40;38.90;;;;;;5011728;28;20446;-71
2023/04/16 10:51:28;;;;;;;435.27;407.13;;;9.40;37.70;;;;;;5012505;28;20914;-72
2023/04/16 10:53:56;;;;;;;267.90;249.53;;;9.50;37.70;;;;;;5012536;28;20457;-72
2023/04/16 10:56:26;;;;;;;206.37;189.70;;;9.60;38.30;;;;;;4995754;28;20556;-71
2023/04/16 10:58:55;;;;;;;369.83;343.33;;;9.60;37.20;;;;;;5012416;28;20441;-71
2023/04/16 11:01:31;;;;;;;270.33;249.07;;;9.50;36.70;;;;;;5012084;28;20505;-72
2023/04/16 11:03:59;;;;;;;228.60;210.77;;;9.30;36.50;;;;;;5011178;28;20457;-70
2023/04/16 11:06:26;;;;;;;171.70;156.60;;;9.10;37.80;;;;;;5012240;28;20429;-71
2023/04/16 11:08:52;;;;;;;511.50;478.17;;;9.10;39.40;;;;;;5015415;28;20909;-71
2023/04/16 11:11:18;;;;;;;381.33;354.70;;;9.00;39.60;;;;;;5014917;28;20421;-71
2023/04/16 11:13:44;;;;;;;376.53;350.53;;;9.00;40.20;;;;;;5014394;28;20209;-71
2023/04/16 11:16:15;;;;;;;365.57;340.90;;;8.90;38.70;;;;;;5015530;28;20424;-71
2023/04/16 11:18:40;;;;;;;382.33;355.30;;;8.70;39.90;;;;;;5015349;28;20394;-71
2023/04/16 11:21:11;;;;;;;478.60;447.77;;;8.70;41.20;;;;;;5015433;28;20406;-71
2023/04/16 11:23:50;;;;;;;407.53;379.83;;;8.80;41.20;;;;;;5014475;28;20213;-72
2023/04/16 11:26:24;;;;;;;432.07;406.27;;;8.80;39.70;;;;;;5016155;28;20410;-72
2023/04/16 11:28:49;;;;;;;337.20;313.13;;;8.70;41.70;;;;;;5011764;28;20514;-72
2023/04/16 11:31:15;;;;;;;412.50;383.07;;;8.80;42.90;;;;;;5014787;28;21160;-72
2023/04/16 11:33:41;;;;;;;457.07;426.20;;;8.80;42.00;;;;;;5014523;28;20209;-71
2023/04/16 11:36:07;;;;;;;286.77;266.57;;;8.80;41.20;;;;;;5016266;28;20305;-71
2023/04/16 11:38:37;;;;;;;497.07;464.97;;;8.80;41.20;;;;;;5014800;28;20508;-71
2023/04/16 11:41:03;;;;;;;659.83;611.83;;;8.90;41.30;;;;;;5015124;28;20250;-72
2023/04/16 11:43:28;;;;;;;331.10;307.57;;;8.90;39.50;;;;;;5014583;28;20556;-71
2023/04/16 11:45:59;;;;;;;422.97;393.60;;;8.90;40.20;;;;;;5014743;28;20436;-71
2023/04/16 11:48:44;;;;;;;206.53;190.40;;;8.90;40.30;;;;;;5017580;28;20155;-72
2023/04/16 11:51:09;;;;;;;218.13;200.87;;;9.00;41.40;;;;;;5015824;28;20420;-72
2023/04/16 11:53:35;;;;;;;557.63;519.93;;;9.00;41.10;;;;;;5016413;28;20435;-72
2023/04/16 11:56:02;;;;;;;451.57;421.33;;;8.90;41.30;;;;;;4997342;28;20243;-72
2023/04/16 11:58:27;;;;;;;241.30;223.37;;;8.90;40.70;;;;;;5014829;28;20270;-72
2023/04/16 12:00:55;;;;;;;394.43;366.70;;;8.90;41.30;;;;;;5015496;28;20443;-71
2023/04/16 12:03:42;;;;;;;368.57;344.23;;;9.00;40.40;;;;;;5015183;28;20218;-71
2023/04/16 12:06:09;;;;;;;517.63;483.73;;;8.90;41.30;;;;;;4997444;28;20436;-71
2023/04/16 12:08:35;;;;;;;450.30;421.07;;;9.00;38.80;;;;;;4997502;28;20478;-73
2023/04/16 12:11:00;;;;;;;322.47;300.93;;;9.10;38.20;;;;;;5014738;28;20424;-72
2023/04/16 12:13:26;;;;;;;408.83;381.20;;;9.20;38.90;;;;;;5014116;28;20202;-72
2023/04/16 12:15:53;;;;;;;178.60;163.50;;;9.10;39.60;;;;;;5015766;28;20515;-71
2023/04/16 12:18:21;;;;;;;302.90;280.33;;;9.30;39.40;;;;;;5014060;28;20205;-71
2023/04/16 12:20:49;;;;;;;255.00;237.03;;;9.40;36.60;;;;;;5013703;28;20483;-73
2023/04/16 12:23:29;;;;;;;112.50;100.63;;;9.30;36.50;;;;;;4995913;28;20560;-73
2023/04/16 12:26:01;;;;;;;306.10;283.80;;;9.50;38.30;;;;;;5014590;28;20432;-72
2023/04/16 12:28:32;;;;;;;504.10;471.10;;;9.40;35.40;;;;;;5013553;28;20413;-72